sensor_id;sensor_type;location;lat;lon;timestamp;pressure;altitude;pressure_sealevel;temperature;humidity
54248;BME280;40161;39.768;2.722;2022-12-16T00:00:24;99883.88;;;15.98;60.86
54248;BME280;40161;39.768;2.722;2022-12-16T00:02:50;99874.00;;;15.97;60.77
54248;BME280;40161;39.768;2.722;2022-12-16T00:05:16;99860.78;;;15.84;60.82
54248;BME280;40161;39.768;2.722;2022-12-16T00:07:44;99877.56;;;15.97;61.66
54248;BME280;40161;39.768;2.722;2022-12-16T00:10:11;99873.34;;;15.89;62.32
54248;BME280;40161;39.768;2.722;2022-12-16T00:12:36;99817.63;;;15.67;62.51
54248;BME280;40161;39.768;2.722;2022-12-16T00:15:02;99877.44;;;16.04;63.11
54248;BME280;40161;39.768;2.722;2022-12-16T00:17:28;99851.56;;;15.91;64.65
54248;BME280;40161;39.768;2.722;2022-12-16T00:19:53;99879.81;;;16.02;65.02
54248;BME280;40161;39.768;2.722;2022-12-16T00:22:19;99869.66;;;15.96;65.49
54248;BME280;40161;39.768;2.722;2022-12-16T00:24:44;99834.59;;;15.69;65.22
54248;BME280;40161;39.768;2.722;2022-12-16T00:27:10;99865.03;;;15.89;65.02
54248;BME280;40161;39.768;2.722;2022-12-16T00:29:35;99825.16;;;15.66;65.16
54248;BME280;40161;39.768;2.722;2022-12-16T00:32:01;99887.41;;;15.98;65.87
54248;BME280;40161;39.768;2.722;2022-12-16T00:34:27;99844.31;;;15.77;66.26
54248;BME280;40161;39.768;2.722;2022-12-16T00:36:52;99840.13;;;15.69;65.65
54248;BME280;40161;39.768;2.722;2022-12-16T00:39:18;99875.25;;;15.92;66.12
54248;BME280;40161;39.768;2.722;2022-12-16T00:41:44;99850.69;;;15.74;65.47
54248;BME280;40161;39.768;2.722;2022-12-16T00:44:11;99833.09;;;15.61;65.14
54248;BME280;40161;39.768;2.722;2022-12-16T00:46:37;99871.13;;;15.80;65.01
54248;BME280;40161;39.768;2.722;2022-12-16T00:49:02;99887.19;;;15.89;64.59
54248;BME280;40161;39.768;2.722;2022-12-16T00:51:28;99866.38;;;15.81;63.62
54248;BME280;40161;39.768;2.722;2022-12-16T00:53:54;99876.59;;;15.84;62.86
54248;BME280;40161;39.768;2.722;2022-12-16T00:56:19;99891.41;;;15.97;63.16
54248;BME280;40161;39.768;2.722;2022-12-16T00:58:45;99888.63;;;15.97;62.78
54248;BME280;40161;39.768;2.722;2022-12-16T01:01:11;99875.41;;;15.85;62.90
54248;BME280;40161;39.768;2.722;2022-12-16T01:03:37;99870.69;;;15.82;62.77
54248;BME280;40161;39.768;2.722;2022-12-16T01:06:11;99850.97;;;15.56;63.00
54248;BME280;40161;39.768;2.722;2022-12-16T01:08:38;99871.59;;;15.75;62.89
54248;BME280;40161;39.768;2.722;2022-12-16T01:11:04;99891.66;;;15.83;63.69
54248;BME280;40161;39.768;2.722;2022-12-16T01:13:30;99878.28;;;15.78;63.59
54248;BME280;40161;39.768;2.722;2022-12-16T01:15:59;99899.16;;;15.82;64.43
54248;BME280;40161;39.768;2.722;2022-12-16T01:18:25;99906.13;;;15.90;64.59
54248;BME280;40161;39.768;2.722;2022-12-16T01:20:50;99914.06;;;15.88;65.06
54248;BME280;40161;39.768;2.722;2022-12-16T01:23:16;99883.56;;;15.69;64.99
54248;BME280;40161;39.768;2.722;2022-12-16T01:25:42;99915.22;;;15.91;64.08
54248;BME280;40161;39.768;2.722;2022-12-16T01:28:08;99909.44;;;15.82;64.22
54248;BME280;40161;39.768;2.722;2022-12-16T01:30:33;99908.25;;;15.83;64.04
54248;BME280;40161;39.768;2.722;2022-12-16T01:32:59;99927.44;;;15.94;64.26
54248;BME280;40161;39.768;2.722;2022-12-16T01:35:24;99920.81;;;15.87;64.08
54248;BME280;40161;39.768;2.722;2022-12-16T01:37:50;99922.88;;;15.83;64.43
54248;BME280;40161;39.768;2.722;2022-12-16T01:40:18;99906.06;;;15.71;64.66
54248;BME280;40161;39.768;2.722;2022-12-16T01:42:44;99931.69;;;15.75;64.96
54248;BME280;40161;39.768;2.722;2022-12-16T01:45:39;99937.47;;;15.84;64.82
54248;BME280;40161;39.768;2.722;2022-12-16T01:50:45;99934.16;;;15.69;64.42
54248;BME280;40161;39.768;2.722;2022-12-16T01:53:12;99945.13;;;15.76;64.71
54248;BME280;40161;39.768;2.722;2022-12-16T01:55:41;99906.75;;;15.51;64.97
54248;BME280;40161;39.768;2.722;2022-12-16T01:58:21;99952.09;;;15.84;64.42
54248;BME280;40161;39.768;2.722;2022-12-16T02:00:47;99955.75;;;15.78;65.26
54248;BME280;40161;39.768;2.722;2022-12-16T02:03:13;99924.88;;;15.56;65.37
54248;BME280;40161;39.768;2.722;2022-12-16T02:05:40;99958.88;;;15.80;65.30
54248;BME280;40161;39.768;2.722;2022-12-16T02:08:17;99934.44;;;15.75;65.08
54248;BME280;40161;39.768;2.722;2022-12-16T02:19:21;99950.66;;;15.76;65.55
54248;BME280;40161;39.768;2.722;2022-12-16T02:33:31;99951.69;;;15.59;65.95
54248;BME280;40161;39.768;2.722;2022-12-16T02:38:58;99952.34;;;15.39;67.79
54248;BME280;40161;39.768;2.722;2022-12-16T02:41:59;99960.16;;;15.44;68.27
54248;BME280;40161;39.768;2.722;2022-12-16T02:47:08;99960.16;;;15.44;68.00
54248;BME280;40161;39.768;2.722;2022-12-16T02:51:59;99965.53;;;15.55;68.28
54248;BME280;40161;39.768;2.722;2022-12-16T02:54:27;99958.22;;;15.45;68.86
54248;BME280;40161;39.768;2.722;2022-12-16T03:00:05;99937.44;;;15.33;68.91
54248;BME280;40161;39.768;2.722;2022-12-16T03:05:02;99974.31;;;15.50;68.19
54248;BME280;40161;39.768;2.722;2022-12-16T03:07:32;99974.47;;;15.39;68.98
54248;BME280;40161;39.768;2.722;2022-12-16T03:09:58;99959.97;;;15.32;69.22
54248;BME280;40161;39.768;2.722;2022-12-16T03:12:25;99961.38;;;15.43;68.67
54248;BME280;40161;39.768;2.722;2022-12-16T03:14:52;99935.66;;;15.19;68.93
54248;BME280;40161;39.768;2.722;2022-12-16T03:17:20;99969.28;;;15.41;68.66
54248;BME280;40161;39.768;2.722;2022-12-16T03:19:54;99958.78;;;15.33;69.37
54248;BME280;40161;39.768;2.722;2022-12-16T03:22:24;99940.84;;;15.14;69.87
54248;BME280;40161;39.768;2.722;2022-12-16T03:24:52;99974.16;;;15.34;68.84
54248;BME280;40161;39.768;2.722;2022-12-16T03:27:47;99962.41;;;15.26;69.29
54248;BME280;40161;39.768;2.722;2022-12-16T03:30:24;99974.78;;;15.18;70.25
54248;BME280;40161;39.768;2.722;2022-12-16T03:33:15;99947.72;;;15.02;70.92
54248;BME280;40161;39.768;2.722;2022-12-16T03:35:50;99968.47;;;15.17;70.83
54248;BME280;40161;39.768;2.722;2022-12-16T03:38:19;99960.34;;;15.03;71.23
54248;BME280;40161;39.768;2.722;2022-12-16T03:40:46;99958.19;;;14.53;72.95
54248;BME280;40161;39.768;2.722;2022-12-16T03:43:13;99973.28;;;14.38;75.56
54248;BME280;40161;39.768;2.722;2022-12-16T03:45:42;99965.28;;;14.54;74.09
54248;BME280;40161;39.768;2.722;2022-12-16T03:48:09;99944.31;;;14.19;74.49
54248;BME280;40161;39.768;2.722;2022-12-16T03:50:36;99982.84;;;14.30;75.44
54248;BME280;40161;39.768;2.722;2022-12-16T03:53:03;99940.09;;;14.07;76.21
54248;BME280;40161;39.768;2.722;2022-12-16T03:55:29;99942.84;;;14.07;76.29
54248;BME280;40161;39.768;2.722;2022-12-16T03:57:55;99973.13;;;14.18;75.79
54248;BME280;40161;39.768;2.722;2022-12-16T04:00:22;99965.22;;;13.71;77.32
54248;BME280;40161;39.768;2.722;2022-12-16T04:02:48;99983.59;;;13.89;78.29
54248;BME280;40161;39.768;2.722;2022-12-16T04:05:14;99977.94;;;14.07;77.18
54248;BME280;40161;39.768;2.722;2022-12-16T04:07:40;99970.72;;;14.20;76.35
54248;BME280;40161;39.768;2.722;2022-12-16T04:10:07;99935.44;;;13.97;75.70
54248;BME280;40161;39.768;2.722;2022-12-16T04:12:33;99917.84;;;13.87;75.01
54248;BME280;40161;39.768;2.722;2022-12-16T04:15:17;99919.63;;;14.05;74.45
54248;BME280;40161;39.768;2.722;2022-12-16T04:18:01;99961.91;;;14.36;75.46
54248;BME280;40161;39.768;2.722;2022-12-16T04:20:49;99967.81;;;14.34;74.99
54248;BME280;40161;39.768;2.722;2022-12-16T04:23:36;99955.41;;;14.15;76.58
54248;BME280;40161;39.768;2.722;2022-12-16T04:26:45;99939.81;;;13.94;77.50
54248;BME280;40161;39.768;2.722;2022-12-16T04:29:30;99965.78;;;13.97;79.27
54248;BME280;40161;39.768;2.722;2022-12-16T04:31:59;99978.03;;;13.96;80.13
54248;BME280;40161;39.768;2.722;2022-12-16T04:34:25;99965.69;;;14.11;79.85
54248;BME280;40161;39.768;2.722;2022-12-16T04:36:56;99983.00;;;14.15;79.31
54248;BME280;40161;39.768;2.722;2022-12-16T04:39:40;99998.72;;;14.18;79.90
54248;BME280;40161;39.768;2.722;2022-12-16T04:42:24;100006.56;;;14.23;78.85
54248;BME280;40161;39.768;2.722;2022-12-16T04:45:08;100008.13;;;14.24;78.72
54248;BME280;40161;39.768;2.722;2022-12-16T04:47:53;100008.56;;;14.19;79.90
54248;BME280;40161;39.768;2.722;2022-12-16T04:50:38;100023.50;;;14.25;79.67
54248;BME280;40161;39.768;2.722;2022-12-16T04:53:23;100025.97;;;14.13;79.21
54248;BME280;40161;39.768;2.722;2022-12-16T04:56:07;100021.63;;;14.15;80.44
54248;BME280;40161;39.768;2.722;2022-12-16T04:58:51;100047.00;;;14.41;78.58
54248;BME280;40161;39.768;2.722;2022-12-16T05:01:35;100040.06;;;14.25;78.91
54248;BME280;40161;39.768;2.722;2022-12-16T05:04:18;100042.00;;;14.29;79.79
54248;BME280;40161;39.768;2.722;2022-12-16T05:07:03;100038.84;;;14.30;80.54
54248;BME280;40161;39.768;2.722;2022-12-16T05:09:46;99994.91;;;14.05;79.59
54248;BME280;40161;39.768;2.722;2022-12-16T05:12:30;100010.59;;;14.15;79.70
54248;BME280;40161;39.768;2.722;2022-12-16T05:15:14;100046.25;;;14.37;79.56
54248;BME280;40161;39.768;2.722;2022-12-16T05:18:13;100040.78;;;14.33;80.72
54248;BME280;40161;39.768;2.722;2022-12-16T05:20:59;100067.16;;;14.38;80.58
54248;BME280;40161;39.768;2.722;2022-12-16T05:23:44;100058.47;;;14.39;81.02
54248;BME280;40161;39.768;2.722;2022-12-16T05:26:28;100023.81;;;14.31;80.72
54248;BME280;40161;39.768;2.722;2022-12-16T05:29:11;100062.94;;;14.22;81.69
54248;BME280;40161;39.768;2.722;2022-12-16T05:31:56;100034.28;;;14.09;83.31
54248;BME280;40161;39.768;2.722;2022-12-16T05:34:40;100067.22;;;14.31;82.52
54248;BME280;40161;39.768;2.722;2022-12-16T05:37:23;100074.69;;;14.34;83.95
54248;BME280;40161;39.768;2.722;2022-12-16T05:40:11;100067.56;;;14.36;83.26
54248;BME280;40161;39.768;2.722;2022-12-16T05:42:55;100047.19;;;14.19;84.16
54248;BME280;40161;39.768;2.722;2022-12-16T05:45:40;100077.78;;;14.39;83.75
54248;BME280;40161;39.768;2.722;2022-12-16T05:48:24;100083.66;;;14.45;83.96
54248;BME280;40161;39.768;2.722;2022-12-16T05:51:08;100071.50;;;14.39;84.15
54248;BME280;40161;39.768;2.722;2022-12-16T05:53:52;100087.56;;;14.47;83.68
54248;BME280;40161;39.768;2.722;2022-12-16T05:56:35;100066.78;;;14.36;84.63
54248;BME280;40161;39.768;2.722;2022-12-16T05:59:19;100094.69;;;14.52;84.56
54248;BME280;40161;39.768;2.722;2022-12-16T06:02:03;100092.31;;;14.47;85.24
54248;BME280;40161;39.768;2.722;2022-12-16T06:04:47;100082.94;;;14.37;84.87
54248;BME280;40161;39.768;2.722;2022-12-16T06:07:31;100108.88;;;14.51;85.84
54248;BME280;40161;39.768;2.722;2022-12-16T06:10:15;100108.56;;;14.38;86.01
54248;BME280;40161;39.768;2.722;2022-12-16T06:12:59;100100.28;;;14.38;86.62
54248;BME280;40161;39.768;2.722;2022-12-16T06:15:44;100110.09;;;14.46;86.78
54248;BME280;40161;39.768;2.722;2022-12-16T06:18:28;100121.13;;;14.46;86.30
54248;BME280;40161;39.768;2.722;2022-12-16T06:21:12;100085.13;;;14.08;86.30
54248;BME280;40161;39.768;2.722;2022-12-16T06:23:56;100087.44;;;14.17;87.90
54248;BME280;40161;39.768;2.722;2022-12-16T06:26:40;100129.44;;;14.42;86.88
54248;BME280;40161;39.768;2.722;2022-12-16T06:29:24;100125.06;;;14.45;86.24
54248;BME280;40161;39.768;2.722;2022-12-16T06:32:08;100132.13;;;14.53;86.59
54248;BME280;40161;39.768;2.722;2022-12-16T06:34:52;100114.84;;;14.42;86.99
54248;BME280;40161;39.768;2.722;2022-12-16T06:37:36;100134.09;;;14.56;86.15
54248;BME280;40161;39.768;2.722;2022-12-16T06:40:20;100147.09;;;14.56;86.83
54248;BME280;40161;39.768;2.722;2022-12-16T06:43:04;100132.94;;;14.46;86.60
54248;BME280;40161;39.768;2.722;2022-12-16T06:45:48;100147.16;;;14.52;87.52
54248;BME280;40161;39.768;2.722;2022-12-16T06:48:32;100156.59;;;14.51;87.54
54248;BME280;40161;39.768;2.722;2022-12-16T06:51:16;100145.19;;;14.45;87.95
54248;BME280;40161;39.768;2.722;2022-12-16T06:54:00;100129.94;;;14.27;87.91
54248;BME280;40161;39.768;2.722;2022-12-16T06:56:44;100160.16;;;14.44;88.16
54248;BME280;40161;39.768;2.722;2022-12-16T06:59:28;100135.06;;;14.24;88.25
54248;BME280;40161;39.768;2.722;2022-12-16T07:02:12;100162.16;;;14.44;88.24
54248;BME280;40161;39.768;2.722;2022-12-16T07:04:56;100151.97;;;14.34;87.99
54248;BME280;40161;39.768;2.722;2022-12-16T07:07:49;100158.66;;;14.36;87.97
54248;BME280;40161;39.768;2.722;2022-12-16T07:10:35;100181.84;;;14.53;87.92
54248;BME280;40161;39.768;2.722;2022-12-16T07:13:19;100183.84;;;14.45;87.79
54248;BME280;40161;39.768;2.722;2022-12-16T07:16:03;100175.25;;;14.33;88.56
54248;BME280;40161;39.768;2.722;2022-12-16T07:18:47;100170.94;;;14.28;88.83
54248;BME280;40161;39.768;2.722;2022-12-16T07:21:31;100156.81;;;14.15;88.04
54248;BME280;40161;39.768;2.722;2022-12-16T07:24:15;100193.72;;;14.39;88.17
54248;BME280;40161;39.768;2.722;2022-12-16T07:26:59;100196.84;;;14.45;87.25
54248;BME280;40161;39.768;2.722;2022-12-16T07:29:43;100199.25;;;14.39;87.63
54248;BME280;40161;39.768;2.722;2022-12-16T07:32:27;100218.53;;;14.50;88.01
54248;BME280;40161;39.768;2.722;2022-12-16T07:35:11;100219.31;;;14.51;87.66
54248;BME280;40161;39.768;2.722;2022-12-16T07:38:11;100227.97;;;14.56;87.59
54248;BME280;40161;39.768;2.722;2022-12-16T07:40:55;100193.78;;;14.32;87.30
54248;BME280;40161;39.768;2.722;2022-12-16T07:43:39;100245.66;;;14.62;86.22
54248;BME280;40161;39.768;2.722;2022-12-16T07:46:23;100230.72;;;14.56;86.39
54248;BME280;40161;39.768;2.722;2022-12-16T07:49:07;100233.84;;;14.58;85.53
54248;BME280;40161;39.768;2.722;2022-12-16T07:51:51;100233.84;;;14.58;85.89
54248;BME280;40161;39.768;2.722;2022-12-16T07:54:35;100244.88;;;14.62;85.57
54248;BME280;40161;39.768;2.722;2022-12-16T07:57:39;100250.03;;;14.60;87.65
54248;BME280;40161;39.768;2.722;2022-12-16T08:00:23;100216.19;;;14.38;87.40
54248;BME280;40161;39.768;2.722;2022-12-16T08:03:07;100254.75;;;14.63;87.11
54248;BME280;40161;39.768;2.722;2022-12-16T08:05:51;100275.56;;;14.75;86.87
54248;BME280;40161;39.768;2.722;2022-12-16T08:08:35;100273.56;;;14.79;86.49
54248;BME280;40161;39.768;2.722;2022-12-16T08:11:19;100267.31;;;14.71;85.76
54248;BME280;40161;39.768;2.722;2022-12-16T08:14:03;100280.66;;;14.83;85.52
54248;BME280;40161;39.768;2.722;2022-12-16T08:16:47;100296.34;;;14.90;84.55
54248;BME280;40161;39.768;2.722;2022-12-16T08:19:31;100239.41;;;14.55;85.31
54248;BME280;40161;39.768;2.722;2022-12-16T08:22:15;100293.59;;;14.93;85.63
54248;BME280;40161;39.768;2.722;2022-12-16T08:24:59;100291.66;;;14.90;85.71
54248;BME280;40161;39.768;2.722;2022-12-16T08:27:43;100263.75;;;14.70;85.60
54248;BME280;40161;39.768;2.722;2022-12-16T08:30:27;100319.13;;;15.08;85.45
54248;BME280;40161;39.768;2.722;2022-12-16T08:33:11;100303.44;;;14.94;85.20
54248;BME280;40161;39.768;2.722;2022-12-16T08:35:57;100290.47;;;14.88;85.94
54248;BME280;40161;39.768;2.722;2022-12-16T08:38:41;100330.88;;;15.19;85.70
54248;BME280;40161;39.768;2.722;2022-12-16T08:41:25;100294.00;;;14.92;85.57
54248;BME280;40161;39.768;2.722;2022-12-16T08:44:09;100340.31;;;15.26;85.65
54248;BME280;40161;39.768;2.722;2022-12-16T08:46:53;100343.47;;;15.24;85.23
54248;BME280;40161;39.768;2.722;2022-12-16T08:49:37;100344.66;;;15.27;86.86
54248;BME280;40161;39.768;2.722;2022-12-16T08:52:20;100341.53;;;15.25;86.81
54248;BME280;40161;39.768;2.722;2022-12-16T08:55:12;100336.44;;;15.16;85.75
54248;BME280;40161;39.768;2.722;2022-12-16T08:57:56;100368.69;;;15.33;84.47
54248;BME280;40161;39.768;2.722;2022-12-16T09:00:40;100369.09;;;15.35;83.83
54248;BME280;40161;39.768;2.722;2022-12-16T09:03:24;100373.06;;;15.27;84.99
54248;BME280;40161;39.768;2.722;2022-12-16T09:06:08;100381.72;;;15.33;85.86
54248;BME280;40161;39.768;2.722;2022-12-16T09:08:52;100362.03;;;15.24;86.11
54248;BME280;40161;39.768;2.722;2022-12-16T09:11:36;100371.97;;;15.21;85.67
54248;BME280;40161;39.768;2.722;2022-12-16T09:14:20;100384.88;;;15.35;85.44
54248;BME280;40161;39.768;2.722;2022-12-16T09:17:04;100384.91;;;15.31;85.43
54248;BME280;40161;39.768;2.722;2022-12-16T09:19:48;100395.16;;;15.31;84.02
54248;BME280;40161;39.768;2.722;2022-12-16T09:22:31;100386.53;;;15.25;84.22
54248;BME280;40161;39.768;2.722;2022-12-16T09:25:15;100397.66;;;15.18;84.60
54248;BME280;40161;39.768;2.722;2022-12-16T09:27:59;100391.09;;;14.94;84.90
54248;BME280;40161;39.768;2.722;2022-12-16T09:30:43;100409.94;;;15.06;82.30
54248;BME280;40161;39.768;2.722;2022-12-16T09:33:27;100374.19;;;14.81;81.97
54248;BME280;40161;39.768;2.722;2022-12-16T09:36:11;100382.00;;;14.90;81.79
54248;BME280;40161;39.768;2.722;2022-12-16T09:38:55;100395.41;;;14.95;81.49
54248;BME280;40161;39.768;2.722;2022-12-16T09:41:42;100420.19;;;15.09;81.69
54248;BME280;40161;39.768;2.722;2022-12-16T09:50:13;100415.47;;;15.06;81.15
54248;BME280;40161;39.768;2.722;2022-12-16T09:53:02;100417.06;;;15.07;81.13
54248;BME280;40161;39.768;2.722;2022-12-16T09:55:48;100398.56;;;14.97;81.85
54248;BME280;40161;39.768;2.722;2022-12-16T09:58:37;100429.66;;;15.12;80.63
54248;BME280;40161;39.768;2.722;2022-12-16T10:01:23;100418.53;;;15.23;80.23
54248;BME280;40161;39.768;2.722;2022-12-16T10:04:07;100422.06;;;15.23;79.42
54248;BME280;40161;39.768;2.722;2022-12-16T10:06:54;100422.44;;;15.29;79.39
54248;BME280;40161;39.768;2.722;2022-12-16T10:09:51;100421.69;;;15.25;78.57
54248;BME280;40161;39.768;2.722;2022-12-16T10:21:36;100408.19;;;15.34;75.24
54248;BME280;40161;39.768;2.722;2022-12-16T10:24:50;100439.19;;;15.63;72.55
54248;BME280;40161;39.768;2.722;2022-12-16T10:27:48;100408.81;;;15.56;71.74
54248;BME280;40161;39.768;2.722;2022-12-16T10:30:35;100446.97;;;15.79;69.89
54248;BME280;40161;39.768;2.722;2022-12-16T10:33:23;100432.34;;;15.78;67.00
54248;BME280;40161;39.768;2.722;2022-12-16T10:36:13;100434.19;;;15.96;67.19
54248;BME280;40161;39.768;2.722;2022-12-16T10:39:30;100445.94;;;16.07;67.57
54248;BME280;40161;39.768;2.722;2022-12-16T10:45:18;100423.78;;;16.10;66.70
54248;BME280;40161;39.768;2.722;2022-12-16T10:48:04;100432.84;;;16.11;65.11
54248;BME280;40161;39.768;2.722;2022-12-16T10:50:48;100420.59;;;16.12;65.23
54248;BME280;40161;39.768;2.722;2022-12-16T10:53:33;100411.09;;;16.09;65.41
54248;BME280;40161;39.768;2.722;2022-12-16T10:59:37;100397.03;;;15.97;64.26
54248;BME280;40161;39.768;2.722;2022-12-16T11:02:24;100411.06;;;16.13;64.91
54248;BME280;40161;39.768;2.722;2022-12-16T11:11:28;100357.63;;;15.82;66.68
54248;BME280;40161;39.768;2.722;2022-12-16T11:14:16;100401.94;;;16.16;66.77
54248;BME280;40161;39.768;2.722;2022-12-16T11:17:16;100418.81;;;16.29;67.07
54248;BME280;40161;39.768;2.722;2022-12-16T11:23:19;100387.84;;;16.03;67.46
54248;BME280;40161;39.768;2.722;2022-12-16T11:26:17;100407.38;;;16.27;67.29
54248;BME280;40161;39.768;2.722;2022-12-16T11:29:14;100423.13;;;16.33;67.22
54248;BME280;40161;39.768;2.722;2022-12-16T11:32:18;100410.41;;;16.40;67.04
54248;BME280;40161;39.768;2.722;2022-12-16T11:35:04;100397.88;;;16.28;66.90
54248;BME280;40161;39.768;2.722;2022-12-16T11:37:53;100418.66;;;16.43;65.74
54248;BME280;40161;39.768;2.722;2022-12-16T11:40:38;100415.50;;;16.41;66.25
54248;BME280;40161;39.768;2.722;2022-12-16T11:43:23;100409.53;;;16.46;65.98
54248;BME280;40161;39.768;2.722;2022-12-16T11:46:12;100405.97;;;16.46;66.45
54248;BME280;40161;39.768;2.722;2022-12-16T11:49:02;100413.03;;;16.50;66.94
54248;BME280;40161;39.768;2.722;2022-12-16T11:51:56;100360.47;;;16.12;66.27
54248;BME280;40161;39.768;2.722;2022-12-16T11:54:52;100406.81;;;16.43;65.99
54248;BME280;40161;39.768;2.722;2022-12-16T11:57:52;100410.72;;;16.45;64.71
54248;BME280;40161;39.768;2.722;2022-12-16T12:00:45;100401.34;;;16.35;64.04
54248;BME280;40161;39.768;2.722;2022-12-16T12:03:38;100400.06;;;16.44;64.78
54248;BME280;40161;39.768;2.722;2022-12-16T12:09:22;100386.75;;;16.31;64.89
54248;BME280;40161;39.768;2.722;2022-12-16T12:12:25;100404.38;;;16.45;64.78
54248;BME280;40161;39.768;2.722;2022-12-16T12:15:36;100401.50;;;16.55;64.87
54248;BME280;40161;39.768;2.722;2022-12-16T12:24:38;100381.06;;;16.46;64.58
54248;BME280;40161;39.768;2.722;2022-12-16T12:27:37;100405.72;;;16.67;65.07
54248;BME280;40161;39.768;2.722;2022-12-16T12:30:25;100396.63;;;16.67;65.58
54248;BME280;40161;39.768;2.722;2022-12-16T12:34:12;100398.56;;;16.70;65.59
54248;BME280;40161;39.768;2.722;2022-12-16T12:36:45;100406.03;;;16.73;66.06
54248;BME280;40161;39.768;2.722;2022-12-16T12:39:38;100376.59;;;16.55;65.19
54248;BME280;40161;39.768;2.722;2022-12-16T12:42:47;100385.97;;;16.61;65.84
54248;BME280;40161;39.768;2.722;2022-12-16T12:46:00;100365.56;;;16.52;65.99
54248;BME280;40161;39.768;2.722;2022-12-16T12:57:59;100379.47;;;16.45;67.08
54248;BME280;40161;39.768;2.722;2022-12-16T13:00:51;100380.91;;;16.56;66.75
54248;BME280;40161;39.768;2.722;2022-12-16T13:03:47;100360.50;;;16.43;66.94
54248;BME280;40161;39.768;2.722;2022-12-16T13:06:34;100399.47;;;16.59;67.16
54248;BME280;40161;39.768;2.722;2022-12-16T13:09:33;100401.28;;;16.73;66.45
54248;BME280;40161;39.768;2.722;2022-12-16T13:12:26;100403.31;;;16.69;66.64
54248;BME280;40161;39.768;2.722;2022-12-16T13:15:33;100415.19;;;16.70;65.71
54248;BME280;40161;39.768;2.722;2022-12-16T13:18:30;100413.13;;;16.77;66.07
54248;BME280;40161;39.768;2.722;2022-12-16T13:24:41;100401.69;;;16.72;65.56
54248;BME280;40161;39.768;2.722;2022-12-16T13:27:28;100371.44;;;16.54;65.64
54248;BME280;40161;39.768;2.722;2022-12-16T13:30:22;100371.81;;;16.56;65.88
54248;BME280;40161;39.768;2.722;2022-12-16T13:33:21;100389.13;;;16.64;65.72
54248;BME280;40161;39.768;2.722;2022-12-16T13:36:08;100388.41;;;16.59;66.58
54248;BME280;40161;39.768;2.722;2022-12-16T13:38:54;100416.28;;;16.79;66.62
54248;BME280;40161;39.768;2.722;2022-12-16T13:50:38;100423.97;;;16.61;66.09
54248;BME280;40161;39.768;2.722;2022-12-16T13:53:36;100423.69;;;16.55;66.35
54248;BME280;40161;39.768;2.722;2022-12-16T13:56:32;100442.09;;;16.69;66.85
54248;BME280;40161;39.768;2.722;2022-12-16T13:59:23;100442.81;;;16.77;66.26
54248;BME280;40161;39.768;2.722;2022-12-16T14:02:25;100435.72;;;16.72;65.86
54248;BME280;40161;39.768;2.722;2022-12-16T14:05:32;100398.84;;;16.45;65.27
54248;BME280;40161;39.768;2.722;2022-12-16T14:08:19;100434.19;;;16.68;64.90
54248;BME280;40161;39.768;2.722;2022-12-16T14:11:22;100411.44;;;16.53;64.96
54248;BME280;40161;39.768;2.722;2022-12-16T14:14:12;100429.09;;;16.66;65.24
54248;BME280;40161;39.768;2.722;2022-12-16T14:16:59;100407.53;;;16.47;64.61
54248;BME280;40161;39.768;2.722;2022-12-16T14:25:33;100430.25;;;16.65;64.02
54248;BME280;40161;39.768;2.722;2022-12-16T14:28:38;100442.16;;;16.66;64.65
54248;BME280;40161;39.768;2.722;2022-12-16T14:31:29;100439.38;;;16.66;64.57
54248;BME280;40161;39.768;2.722;2022-12-16T14:34:24;100445.78;;;16.59;65.51
54248;BME280;40161;39.768;2.722;2022-12-16T14:37:17;100451.72;;;16.57;65.91
54248;BME280;40161;39.768;2.722;2022-12-16T14:40:04;100463.66;;;16.51;66.45
54248;BME280;40161;39.768;2.722;2022-12-16T14:42:51;100444.31;;;16.47;66.19
54248;BME280;40161;39.768;2.722;2022-12-16T14:45:37;100457.00;;;16.48;66.46
54248;BME280;40161;39.768;2.722;2022-12-16T14:48:29;100397.72;;;16.04;66.78
54248;BME280;40161;39.768;2.722;2022-12-16T14:54:40;100472.44;;;16.46;67.01
54248;BME280;40161;39.768;2.722;2022-12-16T14:57:27;100463.44;;;16.38;67.36
54248;BME280;40161;39.768;2.722;2022-12-16T15:00:13;100472.53;;;16.38;66.21
54248;BME280;40161;39.768;2.722;2022-12-16T15:05:51;100453.41;;;16.10;67.73
54248;BME280;40161;39.768;2.722;2022-12-16T15:08:47;100482.94;;;16.24;69.09
54248;BME280;40161;39.768;2.722;2022-12-16T15:11:32;100492.06;;;16.21;70.20
54248;BME280;40161;39.768;2.722;2022-12-16T15:14:24;100469.28;;;16.06;70.14
54248;BME280;40161;39.768;2.722;2022-12-16T15:20:28;100457.22;;;15.82;71.26
54248;BME280;40161;39.768;2.722;2022-12-16T15:23:25;100491.91;;;15.97;70.55
54248;BME280;40161;39.768;2.722;2022-12-16T15:26:23;100477.13;;;15.66;71.21
54248;BME280;40161;39.768;2.722;2022-12-16T15:40:59;100509.59;;;15.48;74.22
54248;BME280;40161;39.768;2.722;2022-12-16T15:43:45;100491.94;;;15.31;75.29
54248;BME280;40161;39.768;2.722;2022-12-16T15:46:30;100416.44;;;14.75;75.10
54248;BME280;40161;39.768;2.722;2022-12-16T15:49:24;100497.16;;;15.18;76.14
54248;BME280;40161;39.768;2.722;2022-12-16T15:55:31;100500.63;;;15.33;75.24
54248;BME280;40161;39.768;2.722;2022-12-16T15:58:33;100549.06;;;15.55;76.38
54248;BME280;40161;39.768;2.722;2022-12-16T16:01:23;100516.41;;;15.32;75.49
54248;BME280;40161;39.768;2.722;2022-12-16T16:04:24;100552.25;;;15.50;75.64
54248;BME280;40161;39.768;2.722;2022-12-16T16:07:21;100538.47;;;15.47;75.41
54248;BME280;40161;39.768;2.722;2022-12-16T16:12:58;100542.59;;;15.06;77.74
54248;BME280;40161;39.768;2.722;2022-12-16T16:15:42;100552.44;;;15.18;77.29
54248;BME280;40161;39.768;2.722;2022-12-16T16:18:26;100545.41;;;14.92;78.08
54248;BME280;40161;39.768;2.722;2022-12-16T16:21:10;100547.81;;;14.79;79.22
54248;BME280;40161;39.768;2.722;2022-12-16T16:23:54;100574.63;;;14.82;80.90